Terminal Aerodrome Forecast
Issued by NWS Twin Cities, MN

Home | Current Version | Previous Version | Text Only | Print | Product List | Glossary Off
Versions: 1 2 3 4 5 6 7 8 9 10 11 12 13 14 15 16 17 18 19 20 21 22 23 24 25

000
FTUS43 KMPX 220600 CCA
TAFMSP
TAF COR
KMSP 220602Z 2206/2312 33005KT P6SM SCT012
     FM220700 VRB02KT 5SM BR OVC004
      TEMPO 2209/2213 3SM BR
     FM221500 06004KT P6SM OVC012
     FM221700 09004KT P6SM BKN020
     FM221900 07004KT P6SM SCT030
     FM230300 06005KT P6SM BKN150=

USA.gov is the U.S. government's official web portal to all federal, state and local government web resources and services.